Silex, Missouri
Current Conditions -  °F | °C
As of 12:54 AM on Saturday 29 Nov 2014 (Local Time) from KSET Reporting Station
Clear Clear  
Wind Chill: 29°   Ceiling: Unl
Heat Index: 34°   Visibility: 10mi
Dew Point: 32°   Wind: 6mph
Humidity: 92%   Direction: 110°ESE
Pressure: 29.85"   Gusts: NA
Location:  39.12°N, 91.05°W
Report Text: KSET 290654Z AUTO 11005KT 10SM CLR 01/00 A2985 RMK AO2 SLP108 T00110000
Loading
Personal Weather Stations






























Interactive Weather Map New forecast layout! Learn more

10-Day Weather Forecast

Advertisements
Track Severe Weather on mobile